Vereeniging, South Africa
Current Conditions -  °F | °C
As of 4:30 PM on Thursday 29 Jan 2015 (Local Time) from FAOR Reporting Station
Scattered Clouds Scattered Clouds  
Wind Chill: 72°   Ceiling: Unl
Heat Index: 72°   Visibility: 6mi
Dew Point: 59°   Wind: 13mph
Humidity: 64%   Direction: 80°E
Pressure: 30.18"   Gusts: NA
Location:  26.65°S, 27.96°E
Report Text: FAOR 291430Z 08011KT 9999 FEW025TCU SCT045 22/15 Q1022 NOSIG
Loading
Personal Weather Stations






























Interactive Weather Map New forecast layout! Learn more

10-Day Weather Forecast

Advertisements
Track Severe Weather on mobile